Monday, December 18, 2017, 5:25 PM EST

KSHD, Staunton / Shenandoah

Location: Weyers Cave, VA, United States Lat: 38.267
Local Time: 5:25 PM EST (22:25 GMT) Lon: -78.9
Time Zone: US/Eastern Elev: 1200 ft

Show me the last for .
Show Decoded

2017-12-18 17:15 METAR KSHD 182215Z AUTO 19006KT 10SM OVC050 12/04 A3001 RMK AO2 T01200043 =
2017-12-18 16:55 METAR KSHD 182155Z AUTO 22007KT 10SM OVC050 13/04 A3000 RMK AO2 T01250042 =
2017-12-18 16:35 METAR KSHD 182135Z AUTO 22006KT 10SM BKN050 13/04 A3000 RMK AO2 T01280044 =
2017-12-18 16:15 METAR KSHD 182115Z AUTO 23007KT 10SM BKN050 13/04 A3000 RMK AO2 T01270043 =
2017-12-18 15:55 METAR KSHD 182055Z AUTO 24007KT 10SM BKN050 13/04 A3000 RMK AO2 T01300043 =
2017-12-18 15:35 METAR KSHD 182035Z AUTO 24009KT 10SM OVC050 13/04 A3001 RMK AO2 T01320042 =
2017-12-18 15:15 METAR KSHD 182015Z AUTO 23009KT 10SM BKN050 13/04 A3000 RMK AO2 T01310042 =
2017-12-18 14:55 METAR KSHD 181955Z AUTO 24009KT 10SM SCT050 13/04 A3001 RMK AO2 T01280043 =
2017-12-18 14:35 METAR KSHD 181935Z AUTO 24006KT 10SM CLR 14/05 A3000 RMK AO2 T01370046 =
2017-12-18 14:15 METAR KSHD 181915Z AUTO 25009G14KT 10SM CLR 14/05 A3001 RMK AO2 T01400047 =
2017-12-18 13:55 METAR KSHD 181855Z AUTO 24009G16KT 10SM SCT045 14/05 A3002 RMK AO2 T01360048 =
2017-12-18 13:35 METAR KSHD 181835Z AUTO 24012G15KT 10SM OVC045 14/05 A3002 RMK AO2 T01350049 =
2017-12-18 13:15 METAR KSHD 181815Z AUTO 20006KT 10SM OVC041 12/05 A3003 RMK AO2 T01190049 =
2017-12-18 12:55 METAR KSHD 181755Z AUTO 19011KT 10SM OVC041 12/05 A3004 RMK AO2 T01150047 10120
                 21002 =
2017-12-18 12:35 METAR KSHD 181735Z AUTO 22010KT 10SM SCT039 12/05 A3005 RMK AO2 T01150045 =
2017-12-18 12:15 METAR KSHD 181715Z AUTO 21012G20KT 10SM CLR 12/05 A3006 RMK AO2 T01180046 =
2017-12-18 11:55 METAR KSHD 181655Z AUTO 21011G15KT 10SM CLR 11/04 A3006 RMK AO2 T01120043 =
2017-12-18 11:35 METAR KSHD 181635Z AUTO 21011KT 10SM CLR 11/04 A3008 RMK AO2 T01100042 =
2017-12-18 11:15 METAR KSHD 181615Z AUTO 20010KT 10SM CLR 11/04 A3009 RMK AO2 T01060040 =
2017-12-18 10:55 METAR KSHD 181555Z AUTO 19007KT 10SM CLR 10/04 A3010 RMK AO2 T00980037 =
2017-12-18 10:35 METAR KSHD 181535Z AUTO 19005KT 10SM CLR 09/04 A3011 RMK AO2 T00920035 =
2017-12-18 10:15 METAR KSHD 181515Z AUTO 19005KT 10SM CLR 08/03 A3012 RMK AO2 T00840031 =
2017-12-18 09:55 METAR KSHD 181455Z AUTO 21005KT 10SM CLR 07/03 A3013 RMK AO2 T00740026 =
2017-12-18 09:35 METAR KSHD 181435Z AUTO 18004KT 10SM SCT035 06/02 A3012 RMK AO2 T00590018 =
2017-12-18 09:15 METAR KSHD 181415Z AUTO 00000KT 10SM OVC035 04/01 A3013 RMK AO2 T00420010 =
2017-12-18 08:55 METAR KSHD 181355Z AUTO 00000KT 10SM OVC037 04/01 A3013 RMK AO2 T00360006 =
2017-12-18 08:35 METAR KSHD 181335Z AUTO 00000KT 10SM OVC037 03/01 A3013 RMK AO2 T00250006 =
2017-12-18 08:15 METAR KSHD 181315Z AUTO 00000KT 10SM OVC037 02/00 A3013 RMK AO2 T00160000 =
2017-12-18 07:55 METAR KSHD 181255Z AUTO 00000KT 10SM BKN039 OVC045 00/M01 A3013 RMK AO2
                 T00001011 =
2017-12-18 07:35 METAR KSHD 181235Z AUTO 00000KT 10SM SCT034 OVC046 01/M01 A3013 RMK AO2
                 T00051015 =
2017-12-18 07:15 METAR KSHD 181215Z AUTO 00000KT 10SM OVC036 00/M01 A3013 RMK AO2 T00021015 =
2017-12-18 06:55 METAR KSHD 181155Z AUTO 00000KT 10SM OVC036 00/M01 A3013 RMK AO2 T10011015 10029
                 21032 =
2017-12-18 06:35 METAR KSHD 181135Z AUTO 00000KT 10SM OVC038 00/M02 A3013 RMK AO2 T10031016 =
2017-12-18 06:15 METAR KSHD 181115Z AUTO 00000KT 10SM OVC040 00/M02 A3013 RMK AO2 T10031022 =
2017-12-18 05:55 METAR KSHD 181055Z AUTO 00000KT 10SM OVC042 M02/M03 A3013 RMK AO2 T10191031 =
2017-12-18 05:35 METAR KSHD 181035Z AUTO 00000KT 10SM OVC042 M02/M04 A3012 RMK AO2 T10211036 =
2017-12-18 05:15 METAR KSHD 181015Z AUTO 00000KT 10SM BKN042 M02/M04 A3012 RMK AO2 T10251038 =
2017-12-18 04:55 METAR KSHD 180955Z AUTO 00000KT 10SM SCT039 M02/M04 A3012 RMK AO2 T10251040 =
2017-12-18 04:35 METAR KSHD 180935Z AUTO 00000KT 10SM SCT039 M03/M04 A3012 RMK AO2 T10321044 =
2017-12-18 04:15 METAR KSHD 180915Z AUTO 00000KT 10SM BKN039 M03/M04 A3012 RMK AO2 T10271040 =
2017-12-18 03:55 METAR KSHD 180855Z AUTO 00000KT 10SM SCT041 M02/M04 A3012 RMK AO2 T10251039 =
2017-12-18 03:35 METAR KSHD 180835Z AUTO 00000KT 10SM CLR M01/M03 A3012 RMK AO2 T10141027 =
2017-12-18 03:15 METAR KSHD 180815Z AUTO 00000KT 10SM CLR M01/M02 A3011 RMK AO2 T10101021 =
2017-12-18 02:55 METAR KSHD 180755Z AUTO 00000KT 10SM CLR M02/M03 A3011 RMK AO2 T10161029 =
2017-12-18 02:35 METAR KSHD 180735Z AUTO 00000KT 10SM CLR M01/M03 A3011 RMK AO2 T10131026 =
2017-12-18 02:15 METAR KSHD 180715Z AUTO 00000KT 10SM SCT050 00/M02 A3011 RMK AO2 T00011019 =
2017-12-18 01:55 METAR KSHD 180655Z AUTO 00000KT 10SM SCT050 03/M01 A3011 RMK AO2 T00251006 =
2017-12-18 01:35 METAR KSHD 180635Z AUTO 00000KT 10SM SCT050 02/M01 A3011 RMK AO2 T00231006 =
2017-12-18 01:15 METAR KSHD 180615Z AUTO 00000KT 10SM OVC050 03/00 A3011 RMK AO2 T00281004 =
2017-12-18 00:55 METAR KSHD 180555Z AUTO 21003KT 10SM OVC060 03/00 A3012 RMK AO2 T00271003 10055
                 20021 400801054 =
2017-12-18 00:35 METAR KSHD 180535Z AUTO 19004KT 10SM BKN060 03/00 A3013 RMK AO2 T00251002 =
2017-12-18 00:15 METAR KSHD 180515Z AUTO 19003KT 10SM SCT038 SCT060 03/00 A3013 RMK AO2 T00321001
                 =
2017-12-17 23:55 METAR KSHD 180455Z AUTO 00000KT 10SM BKN038 BKN044 OVC060 04/00 A3014 RMK AO2
                 T00410000 =
2017-12-17 23:35 METAR KSHD 180435Z AUTO 00000KT 10SM OVC041 05/00 A3013 RMK AO2 T00450000 =
2017-12-17 23:15 METAR KSHD 180415Z AUTO 17003KT 10SM OVC040 05/00 A3014 RMK AO2 T00450000 =
2017-12-17 22:55 METAR KSHD 180355Z AUTO 18003KT 10SM OVC040 05/00 A3015 RMK AO2 T00460000 =
2017-12-17 22:35 METAR KSHD 180335Z AUTO 19004KT 10SM OVC040 05/00 A3014 RMK AO2 T00461001 =
2017-12-17 22:15 METAR KSHD 180315Z AUTO 19003KT 10SM OVC042 05/00 A3014 RMK AO2 T00481001 =
2017-12-17 21:55 METAR KSHD 180255Z AUTO 20003KT 10SM OVC044 05/00 A3015 RMK AO2 T00450000 =
2017-12-17 21:40 METAR KSHD 180240Z AUTO 00000KT 10SM OVC048 05/00 A3015 RMK AO2 T00450000 =
2017-12-17 21:20 METAR KSHD 180220Z AUTO 00000KT 10SM OVC050 05/00 A3014 RMK AO2 T00460000 =
2017-12-17 20:55 METAR KSHD 180155Z AUTO 22003KT 10SM SCT048 OVC065 05/00 A3015 RMK AO2 T00460000
                 =
2017-12-17 20:35 METAR KSHD 180135Z AUTO 20004KT 10SM SCT050 OVC065 05/00 A3015 RMK AO2 T00501001
                 =
2017-12-17 20:15 METAR KSHD 180115Z AUTO 18004KT 10SM BKN050 OVC065 05/00 A3015 RMK AO2 T00501002
                 =
2017-12-17 19:55 METAR KSHD 180055Z AUTO 19005KT 10SM OVC060 05/00 A3016 RMK AO2 T00501001 =
2017-12-17 19:35 METAR KSHD 180035Z AUTO 21003KT 10SM OVC060 05/00 A3016 RMK AO2 T00501001 =
2017-12-17 19:15 METAR KSHD 180015Z AUTO 17003KT 10SM OVC050 05/00 A3016 RMK AO2 T00521004 =
2017-12-17 18:55 METAR KSHD 172355Z AUTO 21004KT 10SM OVC050 06/00 A3017 RMK AO2 T00551005 10080
                 20055 =
2017-12-17 18:35 METAR KSHD 172335Z AUTO 20007KT 10SM OVC048 06/00 A3018 RMK AO2 T00561005 =
2017-12-17 18:15 METAR KSHD 172315Z AUTO 20008KT 10SM -DZ BKN050 BKN060 OVC095 06/M01 A3019 RMK
                 AO2 T00601006 =
2017-12-17 17:55 METAR KSHD 172255Z AUTO 19007KT 10SM DZ SCT060 OVC070 07/M01 A3018 RMK AO2
                 T00651012 =
2017-12-17 17:35 METAR KSHD 172235Z AUTO 20005KT 10SM BKN060 OVC070 07/M02 A3020 RMK AO2
                 T00691025 =

Support USWX by starting your Amazon purchase here.